createdAt,value
2022-10-11T00:00:09.050Z,19.27
2022-10-11T00:02:36.707Z,20.08
2022-10-11T00:05:04.511Z,19.40
2022-10-11T00:07:32.150Z,20.00
2022-10-11T00:09:59.836Z,20.00
2022-10-11T00:12:27.498Z,20.98
2022-10-11T00:14:55.133Z,21.20
2022-10-11T00:17:24.167Z,21.52
2022-10-11T00:19:52.198Z,20.17
2022-10-11T00:22:19.961Z,20.48
2022-10-11T00:24:47.606Z,20.13
2022-10-11T00:27:15.246Z,21.30
2022-10-11T00:29:42.891Z,20.52
2022-10-11T00:32:10.533Z,21.98
2022-10-11T00:34:39.503Z,21.17
2022-10-11T00:37:07.149Z,22.73
2022-10-11T00:39:34.821Z,22.25
2022-10-11T00:42:02.472Z,20.60
2022-10-11T00:44:30.370Z,22.42
2022-10-11T00:46:59.147Z,22.40
2022-10-11T00:49:32.773Z,22.75
2022-10-11T00:52:02.648Z,23.38
2022-10-11T00:54:31.155Z,22.23
2022-10-11T00:57:01.947Z,23.25
2022-10-11T00:59:32.431Z,21.60
2022-10-11T01:02:00.128Z,22.13
2022-10-11T01:04:27.827Z,21.83
2022-10-11T01:06:55.478Z,21.05
2022-10-11T01:09:24.486Z,22.88
2022-10-11T01:11:52.151Z,20.65
2022-10-11T01:14:32.381Z,22.17
2022-10-11T01:17:01.329Z,22.23
2022-10-11T01:19:52.188Z,20.50
2022-10-11T01:22:28.938Z,20.67
2022-10-11T01:25:07.014Z,21.15
2022-10-11T01:27:46.010Z,21.17
2022-10-11T01:30:22.777Z,21.70
2022-10-11T01:32:54.123Z,22.05
2022-10-11T01:35:25.120Z,20.55
2022-10-11T01:37:55.140Z,21.83
2022-10-11T01:40:24.080Z,20.27
2022-10-11T01:42:51.749Z,21.02
2022-10-11T01:45:19.865Z,22.23
2022-10-11T01:47:48.842Z,20.15
2022-10-11T01:50:45.772Z,20.30
2022-10-11T01:53:37.435Z,21.70
2022-10-11T01:56:09.382Z,20.65
2022-10-11T01:58:41.842Z,19.70
2022-10-11T02:01:13.171Z,20.30
2022-10-11T02:03:45.398Z,18.17
2022-10-11T02:06:14.015Z,18.25
2022-10-11T02:08:45.250Z,18.48
2022-10-11T02:11:16.251Z,16.27
2022-10-11T02:13:46.375Z,17.50
2022-10-11T02:16:15.987Z,17.35
2022-10-11T02:18:46.713Z,16.77
2022-10-11T02:21:16.345Z,16.17
2022-10-11T02:23:49.208Z,15.77
2022-10-11T02:26:16.845Z,15.05
2022-10-11T02:28:44.614Z,13.48
2022-10-11T02:31:12.328Z,13.00
2022-10-11T02:33:42.785Z,13.30
2022-10-11T02:36:13.979Z,13.02
2022-10-11T02:38:43.992Z,12.10
2022-10-11T02:41:13.657Z,12.13
2022-10-11T02:43:42.678Z,11.40
2022-10-11T02:46:10.311Z,10.98
2022-10-11T02:48:37.988Z,10.48
2022-10-11T02:51:05.780Z,9.90
2022-10-11T02:53:34.749Z,9.40
2022-10-11T02:56:02.762Z,9.27
2022-10-11T02:58:30.655Z,8.45
2022-10-11T03:00:58.274Z,8.10
2022-10-11T03:03:25.916Z,7.38
2022-10-11T03:05:59.153Z,7.20
2022-10-11T03:08:26.779Z,6.50
2022-10-11T03:10:55.852Z,6.60
2022-10-11T03:13:23.644Z,6.20
2022-10-11T03:16:02.237Z,5.80
2022-10-11T03:18:30.630Z,5.50
2022-10-11T03:20:58.278Z,5.28
2022-10-11T03:23:26.038Z,4.90
2022-10-11T03:25:55.003Z,4.75
2022-10-11T03:28:22.720Z,4.40
2022-10-11T03:30:50.496Z,4.20
2022-10-11T03:33:18.252Z,4.18
2022-10-11T03:35:46.207Z,3.55
2022-10-11T03:38:14.026Z,3.60
2022-10-11T03:40:41.667Z,3.00
2022-10-11T03:43:10.652Z,3.22
2022-10-11T03:45:38.431Z,3.13
2022-10-11T03:48:06.421Z,2.88
2022-10-11T03:50:34.071Z,3.03
2022-10-11T03:53:01.698Z,2.63
2022-10-11T03:55:29.335Z,2.45
2022-10-11T03:57:56.952Z,2.10
2022-10-11T04:00:25.912Z,2.20
2022-10-11T04:02:53.593Z,2.10
2022-10-11T04:05:21.246Z,1.98
2022-10-11T04:07:48.957Z,1.80
2022-10-11T04:10:16.744Z,1.70
2022-10-11T04:12:44.696Z,1.90
2022-10-11T04:15:13.347Z,1.70
2022-10-11T04:17:42.359Z,1.70
2022-10-11T04:20:10.994Z,2.20
2022-10-11T04:22:38.708Z,2.40
2022-10-11T04:25:07.509Z,1.60
2022-10-11T04:27:35.311Z,2.05
2022-10-11T04:30:02.988Z,1.80
2022-10-11T04:32:30.627Z,1.55
2022-10-11T04:34:59.605Z,1.20
2022-10-11T04:37:27.294Z,1.80
2022-10-11T04:39:54.929Z,2.20
2022-10-11T04:42:22.609Z,1.73
2022-10-11T04:44:50.240Z,1.35
2022-10-11T04:47:17.912Z,1.30
2022-10-11T04:49:45.578Z,1.45
2022-10-11T04:52:14.515Z,1.75
2022-10-11T04:54:42.175Z,1.38
2022-10-11T04:57:09.860Z,1.67
2022-10-11T04:59:37.526Z,1.27
2022-10-11T05:02:05.270Z,1.63
2022-10-11T05:04:33.034Z,1.20
2022-10-11T05:07:00.675Z,1.30
2022-10-11T05:09:29.913Z,1.35
2022-10-11T05:11:57.557Z,1.30
2022-10-11T05:14:25.269Z,1.10
2022-10-11T05:16:52.922Z,2.25
2022-10-11T05:19:20.642Z,1.33
2022-10-11T05:21:48.342Z,1.98
2022-10-11T05:24:16.014Z,1.23
2022-10-11T05:26:45.011Z,1.45
2022-10-11T05:29:12.647Z,1.60
2022-10-11T05:31:40.278Z,1.25
2022-10-11T05:34:08.117Z,1.52
2022-10-11T05:36:35.764Z,1.20
2022-10-11T05:39:03.403Z,1.95
2022-10-11T05:41:31.052Z,1.25
2022-10-11T05:44:00.048Z,1.25
2022-10-11T05:46:27.679Z,1.48
2022-10-11T05:48:55.300Z,1.38
2022-10-11T05:51:22.926Z,1.20
2022-10-11T05:53:50.576Z,1.55
2022-10-11T05:56:20.022Z,1.10
2022-10-11T05:58:47.684Z,1.20
2022-10-11T06:01:21.192Z,1.20
2022-10-11T06:03:48.919Z,1.00
2022-10-11T06:06:16.668Z,1.20
2022-10-11T06:08:44.393Z,1.20
2022-10-11T06:11:13.935Z,1.75
2022-10-11T06:13:42.003Z,1.20
2022-10-11T06:16:09.688Z,1.42
2022-10-11T06:18:38.754Z,1.20
2022-10-11T06:21:06.650Z,1.10
2022-10-11T06:23:34.338Z,1.05
2022-10-11T06:26:03.180Z,1.20
2022-10-11T06:28:31.115Z,0.90
2022-10-11T06:30:58.895Z,2.22
2022-10-11T06:33:26.567Z,1.05
2022-10-11T06:35:59.453Z,1.10
2022-10-11T06:38:27.326Z,1.33
2022-10-11T06:40:55.018Z,1.30
2022-10-11T06:43:22.867Z,1.08
2022-10-11T06:45:50.543Z,1.40
2022-10-11T06:48:18.194Z,1.23
2022-10-11T06:50:59.578Z,1.23
2022-10-11T06:53:29.464Z,1.38
2022-10-11T06:56:03.288Z,1.58
2022-10-11T06:58:31.265Z,3.30
2022-10-11T07:01:02.028Z,1.13
2022-10-11T07:03:29.838Z,1.00
2022-10-11T07:06:02.686Z,1.40
2022-10-11T07:08:31.896Z,1.30
2022-10-11T07:11:02.464Z,1.20
2022-10-11T07:13:30.088Z,1.20
2022-10-11T07:15:57.732Z,1.40
2022-10-11T07:18:25.476Z,2.17
2022-10-11T07:20:53.104Z,0.88
2022-10-11T07:23:20.735Z,1.42
2022-10-11T07:25:49.842Z,4.45
2022-10-11T07:28:17.717Z,5.85
2022-10-11T07:30:45.486Z,7.95
2022-10-11T07:33:13.138Z,8.75
2022-10-11T07:35:42.854Z,4.68
2022-10-11T07:38:13.810Z,5.63
2022-10-11T07:40:42.543Z,8.30
2022-10-11T07:43:11.574Z,4.82
2022-10-11T07:45:39.356Z,9.73
2022-10-11T07:48:07.238Z,7.68
2022-10-11T07:50:35.215Z,8.35
2022-10-11T07:53:02.858Z,7.45
2022-10-11T07:55:31.640Z,8.30
2022-10-11T07:57:59.269Z,6.93
2022-10-11T08:00:28.285Z,10.18
2022-10-11T08:02:55.916Z,10.18
2022-10-11T08:05:23.556Z,7.55
2022-10-11T08:07:51.189Z,7.70
2022-10-11T08:10:19.112Z,7.97
2022-10-11T08:12:48.124Z,7.45
2022-10-11T08:15:15.836Z,9.38
2022-10-11T08:17:44.811Z,8.30
2022-10-11T08:20:12.532Z,7.63
2022-10-11T08:22:40.243Z,5.20
2022-10-11T08:25:08.448Z,8.35
2022-10-11T08:27:36.287Z,7.90
2022-10-11T08:30:04.379Z,7.53
2022-10-11T08:32:32.031Z,9.55
2022-10-11T08:35:01.040Z,6.95
2022-10-11T08:37:29.146Z,11.20
2022-10-11T08:39:56.827Z,13.23
2022-10-11T08:42:29.173Z,11.85
2022-10-11T08:45:10.409Z,11.07
2022-10-11T08:47:40.106Z,8.88
2022-10-11T08:50:15.600Z,6.80
2022-10-11T08:52:45.528Z,10.77
2022-10-11T08:55:18.245Z,7.05
2022-10-11T08:57:47.119Z,12.07
2022-10-11T09:00:16.397Z,8.80
2022-10-11T09:03:07.469Z,10.65
2022-10-11T09:05:37.068Z,11.82
2022-10-11T09:08:08.332Z,20.33
2022-10-11T09:10:50.980Z,18.35
2022-10-11T09:13:41.640Z,16.35
2022-10-11T09:16:13.657Z,23.17
2022-10-11T09:18:49.023Z,15.15
2022-10-11T09:21:29.376Z,13.38
2022-10-11T09:24:12.560Z,11.40
2022-10-11T09:26:43.194Z,10.48
2022-10-11T09:29:13.759Z,15.20
2022-10-11T09:31:41.892Z,15.25
2022-10-11T09:34:12.158Z,10.40
2022-10-11T09:36:42.717Z,10.43
2022-10-11T09:39:16.485Z,7.68
2022-10-11T09:41:46.514Z,8.65
2022-10-11T09:44:15.200Z,10.63
2022-10-11T09:46:42.856Z,10.70
2022-10-11T09:49:12.298Z,7.93
2022-10-11T09:51:41.733Z,8.05
2022-10-11T09:54:10.692Z,13.65
2022-10-11T09:56:41.839Z,9.82
2022-10-11T09:59:15.807Z,6.75
2022-10-11T10:01:44.576Z,9.60
2022-10-11T10:04:13.653Z,7.32
2022-10-11T10:06:45.695Z,8.43
2022-10-11T10:09:21.524Z,7.15
2022-10-11T10:11:49.270Z,7.05
2022-10-11T10:14:21.372Z,4.57
2022-10-11T10:16:49.109Z,12.43
2022-10-11T10:19:18.951Z,7.55
2022-10-11T10:21:48.701Z,8.82
2022-10-11T10:24:19.467Z,8.98
2022-10-11T10:27:06.247Z,6.43
2022-10-11T10:29:33.894Z,7.53
2022-10-11T10:32:19.213Z,9.43
2022-10-11T10:34:54.550Z,5.55
2022-10-11T10:37:26.933Z,4.30
2022-10-11T10:39:56.287Z,4.35
2022-10-11T10:42:23.935Z,5.25
2022-10-11T10:44:53.211Z,6.22
2022-10-11T10:47:25.612Z,7.13
2022-10-11T10:49:55.986Z,4.50
2022-10-11T10:52:43.326Z,7.57
2022-10-11T10:55:18.601Z,6.63
2022-10-11T10:57:51.102Z,4.60
2022-10-11T11:00:19.979Z,6.13
2022-10-11T11:02:51.025Z,4.15
2022-10-11T11:05:24.331Z,4.50
2022-10-11T11:07:55.588Z,7.82
2022-10-11T11:10:23.925Z,8.18
2022-10-11T11:12:56.196Z,5.18
2022-10-11T11:15:31.415Z,5.18
2022-10-11T11:18:12.155Z,4.43
2022-10-11T11:20:46.700Z,6.05
2022-10-11T11:23:21.793Z,6.28
2022-10-11T11:25:53.211Z,5.03
2022-10-11T11:28:29.036Z,4.95
2022-10-11T11:30:59.927Z,4.10
2022-10-11T11:33:34.958Z,5.65
2022-10-11T11:36:04.945Z,3.70
2022-10-11T11:38:40.565Z,3.78
2022-10-11T11:41:11.215Z,4.10
2022-10-11T11:43:40.312Z,4.93
2022-10-11T11:46:10.919Z,5.47
2022-10-11T11:48:38.579Z,4.78
2022-10-11T11:51:11.293Z,4.05
2022-10-11T11:53:50.252Z,4.50
2022-10-11T11:56:26.877Z,3.80
2022-10-11T11:58:58.731Z,4.78
2022-10-11T12:01:31.579Z,3.53
2022-10-11T12:04:02.231Z,4.00
2022-10-11T12:06:30.657Z,5.03
2022-10-11T12:09:04.867Z,4.10
2022-10-11T12:11:45.213Z,3.63
2022-10-11T12:14:18.098Z,3.92
2022-10-11T12:17:15.617Z,4.32
2022-10-11T12:19:44.370Z,4.90
2022-10-11T12:22:19.891Z,4.32
2022-10-11T12:24:56.208Z,5.63
2022-10-11T12:27:37.124Z,4.05
2022-10-11T12:30:05.363Z,2.85
2022-10-11T12:32:51.316Z,5.75
2022-10-11T12:36:04.055Z,4.15
2022-10-11T12:38:35.528Z,4.28
2022-10-11T12:41:35.715Z,2.85
2022-10-11T12:44:20.191Z,3.05
2022-10-11T12:47:31.359Z,2.72
2022-10-11T12:50:07.188Z,3.53
2022-10-11T12:52:37.321Z,3.78
2022-10-11T12:55:13.675Z,3.75
2022-10-11T12:58:06.153Z,4.22
2022-10-11T13:00:43.291Z,3.50
2022-10-11T13:03:32.077Z,4.45
2022-10-11T13:06:01.866Z,4.32
2022-10-11T13:08:31.371Z,4.10
2022-10-11T13:11:03.226Z,5.30
2022-10-11T13:13:32.013Z,3.03
2022-10-11T13:16:06.869Z,3.78
2022-10-11T13:18:34.845Z,3.97
2022-10-11T13:21:02.625Z,3.22
2022-10-11T13:23:35.149Z,2.35
2022-10-11T13:26:02.820Z,2.72
2022-10-11T13:28:34.130Z,3.30
2022-10-11T13:31:05.706Z,2.88
2022-10-11T13:33:35.335Z,3.13
2022-10-11T13:36:05.131Z,3.17
2022-10-11T13:38:34.229Z,2.35
2022-10-11T13:41:02.893Z,2.33
2022-10-11T13:43:30.692Z,2.67
2022-10-11T13:45:59.427Z,3.80
2022-10-11T13:48:31.853Z,3.47
2022-10-11T13:51:06.510Z,2.97
2022-10-11T13:53:34.282Z,2.63
2022-10-11T13:56:04.013Z,3.22
2022-10-11T13:58:35.126Z,2.88
2022-10-11T14:01:04.097Z,3.28
2022-10-11T14:03:38.556Z,2.63
2022-10-11T14:06:06.883Z,4.05
2022-10-11T14:08:37.732Z,2.35
2022-10-11T14:11:06.769Z,2.22
2022-10-11T14:13:35.935Z,2.50
2022-10-11T14:16:07.322Z,3.38
2022-10-11T14:18:45.662Z,3.42
2022-10-11T14:21:27.187Z,2.50
2022-10-11T14:23:56.247Z,2.60
2022-10-11T14:26:24.051Z,2.35
2022-10-11T14:28:52.931Z,2.30
2022-10-11T14:31:20.667Z,1.92
2022-10-11T14:33:49.642Z,2.00
2022-10-11T14:36:17.277Z,1.73
2022-10-11T14:38:45.006Z,2.55
2022-10-11T14:41:12.752Z,2.00
2022-10-11T14:43:40.436Z,2.10
2022-10-11T14:46:08.400Z,1.73
2022-10-11T14:48:54.283Z,4.15
2022-10-11T14:51:26.340Z,3.78
2022-10-11T14:53:54.081Z,3.78
2022-10-11T14:56:22.040Z,1.95
2022-10-11T14:58:49.877Z,2.85
2022-10-11T15:01:17.894Z,4.35
2022-10-11T15:03:45.627Z,2.10
2022-10-11T15:06:17.659Z,2.00
2022-10-11T15:08:46.786Z,2.50
2022-10-11T15:11:14.861Z,1.70
2022-10-11T15:13:42.551Z,2.38
2022-10-11T15:16:11.421Z,2.42
2022-10-11T15:18:39.080Z,2.38
2022-10-11T15:21:06.994Z,3.33
2022-10-11T15:23:34.699Z,2.00
2022-10-11T15:26:04.048Z,2.20
2022-10-11T15:28:32.836Z,2.28
2022-10-11T15:31:00.891Z,2.20
2022-10-11T15:33:28.540Z,1.77
2022-10-11T15:35:56.224Z,2.17
2022-10-11T15:38:24.841Z,1.67
2022-10-11T15:40:52.869Z,3.13
2022-10-11T15:43:24.723Z,2.10
2022-10-11T15:45:52.867Z,2.05
2022-10-11T15:48:20.740Z,2.33
2022-10-11T15:50:48.542Z,2.17
2022-10-11T15:53:17.199Z,1.88
2022-10-11T15:55:45.686Z,2.05
2022-10-11T15:58:14.473Z,2.45
2022-10-11T16:00:43.534Z,1.65
2022-10-11T16:03:11.806Z,3.42
2022-10-11T16:05:39.561Z,2.30
2022-10-11T16:08:07.261Z,2.08
2022-10-11T16:10:35.138Z,1.90
2022-10-11T16:13:02.802Z,1.48
2022-10-11T16:15:30.453Z,2.00
2022-10-11T16:17:59.458Z,2.25
2022-10-11T16:20:27.109Z,2.92
2022-10-11T16:22:55.087Z,1.40
2022-10-11T16:25:23.230Z,1.60
2022-10-11T16:27:50.942Z,2.13
2022-10-11T16:30:19.580Z,1.35
2022-10-11T16:32:47.286Z,1.88
2022-10-11T16:35:16.487Z,1.90
2022-10-11T16:37:44.252Z,1.60
2022-10-11T16:40:15.668Z,1.33
2022-10-11T16:42:43.311Z,3.35
2022-10-11T16:45:11.529Z,2.60
2022-10-11T16:47:39.168Z,1.35
2022-10-11T16:50:07.868Z,1.60
2022-10-11T16:52:36.901Z,2.33
2022-10-11T16:55:05.057Z,2.17
2022-10-11T16:57:32.775Z,1.73
2022-10-11T17:00:00.434Z,1.30
2022-10-11T17:02:32.268Z,2.50
2022-10-11T17:05:00.324Z,2.28
2022-10-11T17:07:28.165Z,1.45
2022-10-11T17:09:57.906Z,2.28
2022-10-11T17:12:25.648Z,2.20
2022-10-11T17:14:53.431Z,1.73
2022-10-11T17:17:21.981Z,1.75
2022-10-11T17:19:49.692Z,1.35
2022-10-11T17:22:18.473Z,2.30
2022-10-11T17:24:46.255Z,2.17
2022-10-11T17:27:15.240Z,1.77
2022-10-11T17:29:44.002Z,1.80
2022-10-11T17:32:11.892Z,2.05
2022-10-11T17:34:39.555Z,2.88
2022-10-11T17:37:09.827Z,3.08
2022-10-11T17:39:37.808Z,1.88
2022-10-11T17:42:07.428Z,2.15
2022-10-11T17:44:37.175Z,1.83
2022-10-11T17:47:04.990Z,1.95
2022-10-11T17:49:32.925Z,1.60
2022-10-11T17:52:00.753Z,1.48
2022-10-11T17:54:28.515Z,2.08
2022-10-11T17:56:56.180Z,1.48
2022-10-11T17:59:27.348Z,2.38
2022-10-11T18:01:56.419Z,1.10
2022-10-11T18:04:26.784Z,1.35
2022-10-11T18:06:54.616Z,2.55
2022-10-11T18:09:22.585Z,1.92
2022-10-11T18:11:50.484Z,1.77
2022-10-11T18:14:18.240Z,1.27
2022-10-11T18:16:45.917Z,1.80
2022-10-11T18:19:14.984Z,1.85
2022-10-11T18:21:42.699Z,1.73
2022-10-11T18:24:14.808Z,2.25
2022-10-11T18:26:42.905Z,1.50
2022-10-11T18:29:12.304Z,1.48
2022-10-11T18:31:40.299Z,2.08
2022-10-11T18:34:10.545Z,1.05
2022-10-11T18:36:39.838Z,1.33
2022-10-11T18:39:09.142Z,1.75
2022-10-11T18:41:37.178Z,1.50
2022-10-11T18:44:05.978Z,2.35
2022-10-11T18:46:33.791Z,1.00
2022-10-11T18:49:02.222Z,1.20
2022-10-11T18:51:30.891Z,1.60
2022-10-11T18:54:00.366Z,2.63
2022-10-11T18:56:28.535Z,1.92
2022-10-11T18:58:57.136Z,1.83
2022-10-11T19:01:26.094Z,1.25
2022-10-11T19:03:56.410Z,1.45
2022-10-11T19:06:24.927Z,1.67
2022-10-11T19:08:53.605Z,2.13
2022-10-11T19:11:25.055Z,1.52
2022-10-11T19:13:56.131Z,1.27
2022-10-11T19:16:23.982Z,1.20
2022-10-11T19:18:51.731Z,0.98
2022-10-11T19:21:19.835Z,1.50
2022-10-11T19:23:48.053Z,1.38
2022-10-11T19:26:16.501Z,1.15
2022-10-11T19:28:45.677Z,1.55
2022-10-11T19:31:16.186Z,1.98
2022-10-11T19:33:44.060Z,2.00
2022-10-11T19:36:12.540Z,1.95
2022-10-11T19:38:40.193Z,1.52
2022-10-11T19:41:07.856Z,1.45
2022-10-11T19:43:35.538Z,1.48
2022-10-11T19:46:05.127Z,1.10
2022-10-11T19:48:32.964Z,1.40
2022-10-11T19:51:04.028Z,2.00
2022-10-11T19:53:31.796Z,1.25
2022-10-11T19:56:02.086Z,1.38
2022-10-11T19:58:29.834Z,1.33
2022-10-11T20:01:03.835Z,1.50
2022-10-11T20:03:31.559Z,1.75
2022-10-11T20:06:00.529Z,1.17
2022-10-11T20:08:31.064Z,1.80
2022-10-11T20:10:59.128Z,1.27
2022-10-11T20:13:29.933Z,1.33
2022-10-11T20:16:01.212Z,1.65
2022-10-11T20:18:30.260Z,1.40
2022-10-11T20:20:59.588Z,1.30
2022-10-11T20:23:27.850Z,1.85
2022-10-11T20:25:59.986Z,1.63
2022-10-11T20:28:27.942Z,1.63
2022-10-11T20:30:55.677Z,2.30
2022-10-11T20:33:23.316Z,1.40
2022-10-11T20:36:02.000Z,1.48
2022-10-11T20:38:30.222Z,1.63
2022-10-11T20:40:58.054Z,1.15
2022-10-11T20:43:26.028Z,1.77
2022-10-11T20:46:01.764Z,1.30
2022-10-11T20:48:29.492Z,1.92
2022-10-11T20:50:57.275Z,1.35
2022-10-11T20:53:26.375Z,1.30
2022-10-11T20:55:54.073Z,1.50
2022-10-11T20:58:21.904Z,2.53
2022-10-11T21:00:49.575Z,1.23
2022-10-11T21:03:17.453Z,2.17
2022-10-11T21:05:45.198Z,1.38
2022-10-11T21:08:13.004Z,1.63
2022-10-11T21:10:42.096Z,1.65
2022-10-11T21:13:09.740Z,1.25
2022-10-11T21:15:37.399Z,1.65
2022-10-11T21:18:05.365Z,1.45
2022-10-11T21:20:33.023Z,1.70
2022-10-11T21:23:00.676Z,1.75
2022-10-11T21:25:28.339Z,1.27
2022-10-11T21:27:57.433Z,1.17
2022-10-11T21:30:25.096Z,1.38
2022-10-11T21:32:57.135Z,1.52
2022-10-11T21:35:24.839Z,1.20
2022-10-11T21:37:52.481Z,1.70
2022-10-11T21:40:20.146Z,1.02
2022-10-11T21:42:47.821Z,1.92
2022-10-11T21:45:17.030Z,1.63
2022-10-11T21:47:46.205Z,1.50
2022-10-11T21:50:13.893Z,1.20
2022-10-11T21:52:41.529Z,1.30
2022-10-11T21:55:09.237Z,1.45
2022-10-11T21:57:36.924Z,1.30
2022-10-11T22:00:06.500Z,1.33
2022-10-11T22:02:42.311Z,1.25
2022-10-11T22:05:09.988Z,1.05
2022-10-11T22:07:37.676Z,1.52
2022-10-11T22:10:05.710Z,1.58
2022-10-11T22:12:33.644Z,1.17
2022-10-11T22:15:01.460Z,1.60
2022-10-11T22:17:29.107Z,1.30
2022-10-11T22:19:58.109Z,1.67
2022-10-11T22:22:25.876Z,1.65
2022-10-11T22:24:53.547Z,2.13
2022-10-11T22:27:21.211Z,1.88
2022-10-11T22:29:48.892Z,1.48
2022-10-11T22:32:16.618Z,1.70
2022-10-11T22:34:44.656Z,1.20
2022-10-11T22:37:13.836Z,1.65
2022-10-11T22:39:41.493Z,1.45
2022-10-11T22:42:09.141Z,1.88
2022-10-11T22:44:36.813Z,1.50
2022-10-11T22:47:04.544Z,1.33
2022-10-11T22:49:32.226Z,1.60
2022-10-11T22:51:59.875Z,1.25
2022-10-11T22:54:28.910Z,1.45
2022-10-11T22:56:56.583Z,0.80
2022-10-11T22:59:24.379Z,1.40
2022-10-11T23:01:52.051Z,1.10
2022-10-11T23:04:20.799Z,1.00
2022-10-11T23:06:48.422Z,1.73
2022-10-11T23:09:16.079Z,1.90
2022-10-11T23:11:45.167Z,1.48
2022-10-11T23:14:12.914Z,1.15
2022-10-11T23:16:40.598Z,1.50
2022-10-11T23:19:08.247Z,1.48
2022-10-11T23:21:35.913Z,1.88
2022-10-11T23:24:03.662Z,1.55
2022-10-11T23:26:31.340Z,1.38
2022-10-11T23:29:00.328Z,1.10
2022-10-11T23:31:28.009Z,1.40
2022-10-11T23:33:55.680Z,1.40
2022-10-11T23:36:24.428Z,1.77
2022-10-11T23:38:53.157Z,1.75
2022-10-11T23:41:20.853Z,1.27
2022-10-11T23:43:48.541Z,1.80
2022-10-11T23:46:17.506Z,1.55
2022-10-11T23:48:45.176Z,1.20
2022-10-11T23:51:13.177Z,1.02
2022-10-11T23:53:40.869Z,1.08
2022-10-11T23:56:09.691Z,2.28
2022-10-11T23:58:37.456Z,1.40
